Time;durP1;ratioP1;P1;durP2;ratioP2;P2;SDS_P1;SDS_P2;PMS_P1;PMS_P2;Temp;Humidity;BMP_temperature;BMP_pressure;BME280_temperature;BME280_humidity;BME280_pressure;Samples;Min_cycle;Max_cycle;Signal;HPM_P1;HPM_P2
2021/11/20 00:01:06;;;;;;;;;;;;;;;11.97;59.84;100419.34;4426595;32;20212;-84
2021/11/20 00:03:31;;;;;;;;;;;;;;;11.93;59.84;100416.87;4426762;32;20047;-85
2021/11/20 00:05:57;;;;;;;;;;;;;;;11.85;59.84;100422.31;4439751;32;19993;-85
2021/11/20 00:08:22;;;;;;;;;;;;;;;11.90;59.83;100416.97;4413771;32;20266;-85
2021/11/20 00:10:48;;;;;;;;;;;;;;;11.74;59.82;100432.12;4440739;32;19973;-87
2021/11/20 00:13:13;;;;;;;;;;;;;;;11.75;59.83;100420.78;4413607;32;20020;-87
2021/11/20 00:15:49;;;;;;;;;;;;;;;11.90;59.84;100428.25;4426852;32;20281;-84
2021/11/20 00:18:15;;;;;;;;;;;;;;;11.61;59.82;100425.53;4413517;32;20004;-85
2021/11/20 00:20:45;;;;;;;;;;;;;;;11.72;59.83;100417.41;4426474;32;20336;-86
2021/11/20 00:23:11;;;;;;;;;;;;;;;11.57;59.82;100416.91;4414302;32;19985;-87
2021/11/20 00:25:44;;;;;;;;;;;;;;;11.61;59.82;100405.53;4426534;32;20003;-85
2021/11/20 00:28:11;;;;;;;;;;;;;;;11.69;59.83;100416.59;4415162;32;19985;-86
2021/11/20 00:30:54;;;;;;;;;;;;;;;11.64;59.82;100415.00;4413623;32;20345;-87
2021/11/20 00:33:24;;;;;;;;;;;;;;;11.66;59.82;100415.81;4415516;32;20007;-85
2021/11/20 00:35:49;;;;;;;;;;;;;;;11.50;59.81;100409.28;4425737;32;20012;-85
2021/11/20 00:38:14;;;;;;;;;;;;;;;11.54;59.82;100397.88;4425998;32;20304;-84
2021/11/20 00:40:41;;;;;;;;;;;;;;;11.35;59.80;100387.91;4439375;32;19977;-85
2021/11/20 00:43:06;;;;;;;;;;;;;;;11.45;59.80;100398.12;4412203;32;20651;-85
2021/11/20 00:45:32;;;;;;;;;;;;;;;11.51;59.81;100400.56;4412852;32;20030;-84
2021/11/20 00:47:57;;;;;;;;;;;;;;;11.47;59.81;100399.78;4426150;32;19994;-85
2021/11/20 00:50:22;;;;;;;;;;;;;;;11.33;59.81;100405.34;4439384;32;19984;-86
2021/11/20 00:52:47;;;;;;;;;;;;;;;11.42;59.81;100399.06;4425969;32;20024;-85
2021/11/20 00:55:14;;;;;;;;;;;;;;;11.41;59.81;100405.16;4425282;32;23921;-84
2021/11/20 00:57:40;;;;;;;;;;;;;;;11.32;59.80;100393.19;4413117;32;19969;-84
2021/11/20 01:00:06;;;;;;;;;;;;;;;11.34;59.81;100396.63;4412766;32;19988;-85
2021/11/20 01:02:31;;;;;;;;;;;;;;;11.37;59.81;100396.56;4425958;32;20043;-84
2021/11/20 01:04:57;;;;;;;;;;;;;;;11.45;59.80;100395.50;4439506;32;19992;-84
2021/11/20 01:07:22;;;;;;;;;;;;;;;11.36;59.80;100391.41;4412674;32;19986;-85
2021/11/20 01:09:47;;;;;;;;;;;;;;;11.35;59.80;100402.69;4412974;32;29017;-85
2021/11/20 01:12:14;;;;;;;;;;;;;;;11.25;59.80;100402.06;4439889;32;27812;-85
2021/11/20 01:14:39;;;;;;;;;;;;;;;11.42;59.81;100403.41;4436083;32;20014;-86
2021/11/20 01:17:05;;;;;;;;;;;;;;;11.41;59.81;100399.94;4426608;32;19977;-84
2021/11/20 01:19:30;;;;;;;;;;;;;;;11.46;59.82;100398.06;4425462;32;20010;-86
2021/11/20 01:21:55;;;;;;;;;;;;;;;11.43;59.81;100389.47;4425554;32;19997;-85
2021/11/20 01:24:21;;;;;;;;;;;;;;;11.51;59.81;100390.13;4425036;32;19999;-85
2021/11/20 01:26:46;;;;;;;;;;;;;;;11.53;59.82;100394.41;4412823;32;19985;-85
2021/11/20 01:29:12;;;;;;;;;;;;;;;11.46;59.82;100385.03;4425461;32;20032;-86
2021/11/20 01:31:38;;;;;;;;;;;;;;;11.53;59.82;100380.50;4425916;32;19982;-85
2021/11/20 01:34:03;;;;;;;;;;;;;;;11.30;59.80;100370.66;4425587;32;19993;-84
2021/11/20 01:36:29;;;;;;;;;;;;;;;11.34;59.81;100375.75;4425133;32;25726;-86
2021/11/20 01:38:56;;;;;;;;;;;;;;;11.48;59.82;100377.19;4426772;32;19994;-86
2021/11/20 01:41:21;;;;;;;;;;;;;;;11.50;59.81;100388.41;4431526;32;19985;-84
2021/11/20 01:43:48;;;;;;;;;;;;;;;11.44;59.81;100394.66;4411949;32;20270;-86
2021/11/20 01:46:14;;;;;;;;;;;;;;;11.49;59.81;100386.72;4424901;32;20027;-85
2021/11/20 01:48:40;;;;;;;;;;;;;;;11.50;59.81;100393.63;4425158;32;19978;-84
2021/11/20 01:51:12;;;;;;;;;;;;;;;11.51;59.81;100384.91;4424880;32;19997;-85
2021/11/20 01:53:40;;;;;;;;;;;;;;;11.80;59.83;100376.34;4412229;32;20152;-84
2021/11/20 01:56:07;;;;;;;;;;;;;;;11.74;59.82;100374.75;4411005;32;20020;-85
2021/11/20 01:58:38;;;;;;;;;;;;;;;11.79;59.83;100378.09;4412048;32;19985;-83
2021/11/20 02:01:07;;;;;;;;;;;;;;;11.81;59.83;100365.87;4425227;32;19993;-84
2021/11/20 02:03:49;;;;;;;;;;;;;;;11.69;59.83;100369.66;4438928;32;20000;-84
2021/11/20 02:06:17;;;;;;;;;;;;;;;11.81;59.82;100371.09;4412104;32;20045;-85
2021/11/20 02:08:57;;;;;;;;;;;;;;;11.66;59.82;100358.47;4439263;32;19993;-84
2021/11/20 02:11:33;;;;;;;;;;;;;;;11.73;59.83;100361.75;4424840;32;19994;-85
2021/11/20 02:13:58;;;;;;;;;;;;;;;11.82;59.83;100362.37;4425109;32;20070;-85
2021/11/20 02:16:26;;;;;;;;;;;;;;;11.73;59.83;100367.81;4425227;32;20262;-84
2021/11/20 02:18:53;;;;;;;;;;;;;;;11.59;59.82;100369.91;4411263;32;20294;-85
2021/11/20 02:21:20;;;;;;;;;;;;;;;11.64;59.82;100368.06;4424711;32;19998;-85
2021/11/20 02:23:45;;;;;;;;;;;;;;;11.62;59.83;100364.66;4425441;32;20376;-84
2021/11/20 02:26:11;;;;;;;;;;;;;;;11.63;59.82;100356.78;4425135;32;20033;-85
2021/11/20 02:28:36;;;;;;;;;;;;;;;11.64;59.82;100355.87;4438908;32;20330;-85
2021/11/20 02:31:02;;;;;;;;;;;;;;;11.65;59.82;100360.22;4412703;32;20027;-85
2021/11/20 02:33:31;;;;;;;;;;;;;;;11.64;59.82;100355.03;4425078;32;20035;-86
2021/11/20 02:36:01;;;;;;;;;;;;;;;11.55;59.81;100352.66;4412301;32;19987;-84
2021/11/20 02:38:30;;;;;;;;;;;;;;;11.47;59.82;100350.25;4425496;32;20056;-84
2021/11/20 02:40:55;;;;;;;;;;;;;;;11.39;59.81;100344.41;4412472;32;19989;-85
2021/11/20 02:43:21;;;;;;;;;;;;;;;11.28;59.80;100355.06;4425580;32;20020;-85
2021/11/20 02:45:48;;;;;;;;;;;;;;;11.24;59.80;100347.38;4424372;32;20357;-84
2021/11/20 02:48:13;;;;;;;;;;;;;;;11.31;59.81;100348.94;4425042;32;20330;-84
2021/11/20 02:50:39;;;;;;;;;;;;;;;11.35;59.80;100354.03;4438641;32;20039;-85
2021/11/20 02:53:06;;;;;;;;;;;;;;;11.44;59.81;100342.53;4411962;32;20005;-85
2021/11/20 02:55:32;;;;;;;;;;;;;;;11.48;59.82;100343.28;4424673;32;19974;-84
2021/11/20 02:57:58;;;;;;;;;;;;;;;11.17;59.79;100346.69;4412425;32;19995;-86
2021/11/20 03:00:23;;;;;;;;;;;;;;;11.27;59.80;100342.94;4423955;32;19997;-82
2021/11/20 03:02:48;;;;;;;;;;;;;;;11.42;59.81;100340.84;4438171;32;20364;-84
2021/11/20 03:05:13;;;;;;;;;;;;;;;11.42;59.81;100346.91;4424113;32;20017;-84
2021/11/20 03:07:39;;;;;;;;;;;;;;;11.51;59.81;100359.69;4423652;32;20008;-85
2021/11/20 03:10:04;;;;;;;;;;;;;;;11.75;59.83;100363.41;4424903;32;21725;-83
2021/11/20 03:12:30;;;;;;;;;;;;;;;11.50;59.81;100357.12;4411139;32;19998;-84
2021/11/20 03:14:55;;;;;;;;;;;;;;;11.64;59.82;100363.72;4410934;32;19992;-84
2021/11/20 03:17:21;;;;;;;;;;;;;;;11.79;59.83;100361.59;4438427;32;19985;-86
2021/11/20 03:19:47;;;;;;;;;;;;;;;11.73;59.83;100357.38;4421285;32;20041;-85
2021/11/20 03:22:14;;;;;;;;;;;;;;;11.61;59.82;100360.34;4424272;32;20027;-84
2021/11/20 03:24:39;;;;;;;;;;;;;;;11.72;59.83;100347.84;4411255;32;19989;-85
2021/11/20 03:27:05;;;;;;;;;;;;;;;11.72;59.83;100353.06;4411243;32;20287;-84
2021/11/20 03:29:30;;;;;;;;;;;;;;;11.66;59.82;100351.47;4438313;32;20048;-85
2021/11/20 03:31:55;;;;;;;;;;;;;;;11.68;59.83;100356.66;4437735;32;23919;-84
2021/11/20 03:34:21;;;;;;;;;;;;;;;11.67;59.83;100353.19;4411376;32;20010;-85
2021/11/20 03:36:46;;;;;;;;;;;;;;;11.72;59.83;100357.44;4424088;32;20027;-84
2021/11/20 03:39:12;;;;;;;;;;;;;;;11.67;59.83;100363.63;4423806;32;20024;-85
2021/11/20 03:41:37;;;;;;;;;;;;;;;11.68;59.83;100367.09;4437815;32;19977;-83
2021/11/20 03:44:03;;;;;;;;;;;;;;;11.54;59.82;100366.59;4423740;32;20333;-84
2021/11/20 03:46:28;;;;;;;;;;;;;;;11.64;59.82;100368.06;4410469;32;20390;-84
2021/11/20 03:48:53;;;;;;;;;;;;;;;11.67;59.83;100366.25;4423497;32;20341;-83
2021/11/20 03:51:18;;;;;;;;;;;;;;;11.60;59.83;100358.63;4437142;32;20007;-84
2021/11/20 03:53:43;;;;;;;;;;;;;;;11.85;59.83;100362.31;4437370;32;19969;-83
2021/11/20 03:56:09;;;;;;;;;;;;;;;11.89;59.83;100361.31;4422909;32;20718;-83
2021/11/20 03:58:34;;;;;;;;;;;;;;;11.78;59.83;100357.25;4410415;32;20019;-84
2021/11/20 04:01:01;;;;;;;;;;;;;;;11.70;59.83;100360.06;4410362;32;19982;-85
2021/11/20 04:03:27;;;;;;;;;;;;;;;11.83;59.84;100351.06;4423465;32;19988;-84
2021/11/20 04:05:52;;;;;;;;;;;;;;;11.79;59.83;100349.41;4423168;32;20013;-83
2021/11/20 04:08:18;;;;;;;;;;;;;;;11.61;59.82;100347.28;4423350;32;20015;-84
2021/11/20 04:10:44;;;;;;;;;;;;;;;11.68;59.83;100348.84;4410594;32;19989;-85
2021/11/20 04:13:09;;;;;;;;;;;;;;;11.70;59.82;100349.66;4423196;32;19991;-84
2021/11/20 04:15:35;;;;;;;;;;;;;;;11.83;59.83;100326.72;4422999;32;23035;-84
2021/11/20 04:18:00;;;;;;;;;;;;;;;11.78;59.83;100332.06;4436565;32;29038;-84
2021/11/20 04:20:25;;;;;;;;;;;;;;;11.52;59.81;100317.09;4412813;32;20021;-85
2021/11/20 04:22:51;;;;;;;;;;;;;;;11.47;59.82;100324.19;4412452;32;20844;-83
2021/11/20 04:25:16;;;;;;;;;;;;;;;11.46;59.81;100305.97;4412558;32;20262;-85
2021/11/20 04:27:42;;;;;;;;;;;;;;;11.37;59.81;100318.37;4412600;32;20011;-85
2021/11/20 04:30:07;;;;;;;;;;;;;;;11.16;59.80;100308.50;4412758;32;20013;-84
2021/11/20 04:32:33;;;;;;;;;;;;;;;11.30;59.81;100308.97;4439848;32;19989;-85
2021/11/20 04:34:58;;;;;;;;;;;;;;;11.27;59.80;100303.84;4424482;32;21416;-84
2021/11/20 04:37:23;;;;;;;;;;;;;;;11.34;59.81;100297.56;4411692;32;27842;-85
2021/11/20 04:39:48;;;;;;;;;;;;;;;11.30;59.80;100289.88;4424803;32;27327;-85
2021/11/20 04:42:15;;;;;;;;;;;;;;;11.28;59.80;100294.28;4412560;32;20000;-84
2021/11/20 04:44:40;;;;;;;;;;;;;;;11.44;59.80;100299.94;4439291;32;20337;-85
2021/11/20 04:47:05;;;;;;;;;;;;;;;11.31;59.80;100302.00;4411881;32;29635;-84
2021/11/20 04:49:30;;;;;;;;;;;;;;;11.12;59.79;100295.56;4424378;32;28553;-84
2021/11/20 04:51:56;;;;;;;;;;;;;;;11.16;59.80;100292.00;4425332;32;19998;-85
2021/11/20 04:54:21;;;;;;;;;;;;;;;11.00;59.79;100286.31;4412942;32;19992;-87
2021/11/20 04:56:46;;;;;;;;;;;;;;;10.92;59.79;100270.03;4413558;32;20361;-86
2021/11/20 04:59:11;;;;;;;;;;;;;;;10.90;59.78;100284.84;4426489;32;20029;-87
2021/11/20 05:01:37;;;;;;;;;;;;;;;10.97;59.78;100282.06;4439791;32;20251;-85
2021/11/20 05:04:02;;;;;;;;;;;;;;;11.01;59.79;100277.63;4413291;32;20040;-85
2021/11/20 05:06:27;;;;;;;;;;;;;;;11.04;59.79;100256.69;4425572;32;20009;-85
2021/11/20 05:08:54;;;;;;;;;;;;;;;10.91;59.77;100263.13;4425603;32;19985;-85
2021/11/20 05:11:19;;;;;;;;;;;;;;;10.86;59.78;100262.34;4426001;32;19980;-85
2021/11/20 05:13:44;;;;;;;;;;;;;;;10.84;59.79;100269.34;4413348;32;20373;-86
2021/11/20 05:16:10;;;;;;;;;;;;;;;10.93;59.79;100279.56;4426747;32;19981;-87
2021/11/20 05:18:35;;;;;;;;;;;;;;;10.98;59.78;100280.28;4413863;32;20006;-87
2021/11/20 05:21:01;;;;;;;;;;;;;;;11.04;59.78;100290.56;4413272;32;21207;-87
2021/11/20 05:23:27;;;;;;;;;;;;;;;10.88;59.78;100289.22;4413481;32;19997;-87
2021/11/20 05:25:52;;;;;;;;;;;;;;;10.97;59.78;100296.81;4413904;32;19994;-86
2021/11/20 05:28:17;;;;;;;;;;;;;;;10.93;59.78;100300.41;4413613;32;26063;-87
2021/11/20 05:30:42;;;;;;;;;;;;;;;10.91;59.77;100291.78;4426498;32;20019;-87
2021/11/20 05:33:12;;;;;;;;;;;;;;;11.00;59.79;100300.19;4426793;32;20007;-89
2021/11/20 05:35:37;;;;;;;;;;;;;;;11.07;59.79;100300.91;4413728;32;20578;-86
2021/11/20 05:38:03;;;;;;;;;;;;;;;11.16;59.79;100313.72;4413407;32;20054;-87
2021/11/20 05:40:28;;;;;;;;;;;;;;;10.93;59.79;100311.69;4413988;32;20299;-89
2021/11/20 05:42:54;;;;;;;;;;;;;;;11.02;59.79;100310.59;4414020;32;20035;-86
2021/11/20 05:45:22;;;;;;;;;;;;;;;11.11;59.79;100307.72;4413294;32;20051;-85
2021/11/20 05:47:47;;;;;;;;;;;;;;;10.92;59.77;100314.31;4417023;32;20011;-85
2021/11/20 05:50:12;;;;;;;;;;;;;;;10.84;59.79;100321.44;4424968;32;20001;-85
2021/11/20 05:52:38;;;;;;;;;;;;;;;10.99;59.79;100313.25;4425830;32;19982;-86
2021/11/20 05:55:04;;;;;;;;;;;;;;;11.07;59.79;100308.72;4412716;32;23552;-86
2021/11/20 05:57:29;;;;;;;;;;;;;;;10.94;59.79;100323.81;4425979;32;19997;-86
2021/11/20 05:59:54;;;;;;;;;;;;;;;10.93;59.79;100313.44;4439382;32;20047;-85
2021/11/20 06:02:19;;;;;;;;;;;;;;;10.74;59.77;100318.22;4425898;32;20022;-84
2021/11/20 06:04:45;;;;;;;;;;;;;;;10.63;59.77;100321.03;4412487;32;20012;-86
2021/11/20 06:07:11;;;;;;;;;;;;;;;10.65;59.76;100311.47;4440119;32;20004;-86
2021/11/20 06:09:37;;;;;;;;;;;;;;;10.70;59.77;100309.62;4413429;32;19974;-86
2021/11/20 06:12:02;;;;;;;;;;;;;;;10.72;59.77;100297.41;4413414;32;19989;-86
2021/11/20 06:14:27;;;;;;;;;;;;;;;10.73;59.77;100316.50;4412866;32;19993;-86
2021/11/20 06:16:53;;;;;;;;;;;;;;;10.74;59.77;100318.22;4412327;32;24734;-86
2021/11/20 06:19:18;;;;;;;;;;;;;;;10.81;59.77;100309.34;4438750;32;26455;-86
2021/11/20 06:21:43;;;;;;;;;;;;;;;10.82;59.78;100312.81;4425574;32;20372;-86
2021/11/20 06:24:08;;;;;;;;;;;;;;;10.50;59.76;100318.78;4425663;32;20008;-85
2021/11/20 06:26:34;;;;;;;;;;;;;;;10.65;59.76;100311.47;4425879;32;19990;-83
2021/11/20 06:29:00;;;;;;;;;;;;;;;10.69;59.78;100320.94;4413120;32;20244;-83
2021/11/20 06:31:25;;;;;;;;;;;;;;;10.91;59.78;100323.03;4425911;32;19988;-88
2021/11/20 06:33:50;;;;;;;;;;;;;;;10.71;59.77;100339.97;4438451;32;31552;-84
2021/11/20 06:36:15;;;;;;;;;;;;;;;10.88;59.78;100329.13;4425227;32;20035;-85
2021/11/20 06:38:41;;;;;;;;;;;;;;;10.99;59.79;100344.53;4424926;32;20001;-84
2021/11/20 06:41:06;;;;;;;;;;;;;;;11.07;59.79;100337.38;4424008;32;25623;-86
2021/11/20 06:43:31;;;;;;;;;;;;;;;10.86;59.78;100350.91;4425783;32;20012;-84
2021/11/20 06:45:58;;;;;;;;;;;;;;;10.68;59.76;100337.44;4412564;32;20001;-85
2021/11/20 06:48:24;;;;;;;;;;;;;;;10.71;59.77;100353.00;4425062;32;19970;-84
2021/11/20 06:50:49;;;;;;;;;;;;;;;11.03;59.79;100353.97;4425087;32;19969;-85
2021/11/20 06:53:15;;;;;;;;;;;;;;;11.20;59.79;100351.81;4425006;32;20371;-83
2021/11/20 06:55:40;;;;;;;;;;;;;;;11.23;59.80;100348.28;4433377;32;20009;-84
2021/11/20 07:00:38;;;;;;;;;;;;;;;11.33;59.80;100365.38;4425496;32;19977;-85
2021/11/20 07:03:20;;;;;;;;;;;;;;;11.37;59.80;100380.06;4424448;32;20321;-85
2021/11/20 07:05:50;;;;;;;;;;;;;;;11.37;59.81;100375.72;4411891;32;20062;-84
2021/11/20 07:08:15;;;;;;;;;;;;;;;11.48;59.81;100380.63;4438317;32;19992;-82
2021/11/20 07:10:42;;;;;;;;;;;;;;;11.77;59.83;100382.47;4424567;32;20312;-85
2021/11/20 07:13:07;;;;;;;;;;;;;;;11.68;59.83;100380.97;4412219;32;19990;-84
2021/11/20 07:15:33;;;;;;;;;;;;;;;11.76;59.83;100385.13;4410969;32;28940;-84
2021/11/20 07:17:58;;;;;;;;;;;;;;;11.68;59.81;100385.34;4425301;32;19973;-85
2021/11/20 07:20:27;;;;;;;;;;;;;;;11.45;59.81;100411.16;4426209;32;19998;-85
2021/11/20 07:22:52;;;;;;;;;;;;;;;11.21;59.80;100395.22;4425270;32;19982;-85
2021/11/20 07:25:17;;;;;;;;;;;;;;;11.42;59.81;100390.38;4439164;32;20364;-84
2021/11/20 07:27:43;;;;;;;;;;;;;;;11.26;59.80;100401.16;4439489;32;20000;-85
2021/11/20 07:30:08;;;;;;;;;;;;;;;11.51;59.81;100390.13;4412574;32;19986;-85
2021/11/20 07:32:33;;;;;;;;;;;;;;;11.61;59.82;100389.03;4412100;32;20036;-83
2021/11/20 07:34:59;;;;;;;;;;;;;;;11.66;59.82;100395.81;4412072;32;20044;-85
2021/11/20 07:37:24;;;;;;;;;;;;;;;11.64;59.82;100388.94;4412250;32;19982;-84
2021/11/20 07:39:49;;;;;;;;;;;;;;;11.56;59.82;100385.66;4412333;32;19990;-85
2021/11/20 07:42:14;;;;;;;;;;;;;;;11.77;59.83;100377.25;4424419;32;23240;-84
2021/11/20 07:44:40;;;;;;;;;;;;;;;11.81;59.82;100376.31;4411848;32;20040;-83
2021/11/20 07:47:05;;;;;;;;;;;;;;;11.86;59.84;100377.06;4438749;32;19990;-85
2021/11/20 07:49:30;;;;;;;;;;;;;;;11.90;59.83;100383.06;4411804;32;20008;-85
2021/11/20 07:51:55;;;;;;;;;;;;;;;11.55;59.82;100373.50;4411196;32;30082;-84
2021/11/20 07:54:21;;;;;;;;;;;;;;;11.71;59.83;100380.03;4425833;32;19989;-83
2021/11/20 07:56:46;;;;;;;;;;;;;;;11.72;59.83;100368.72;4440386;32;19988;-84
2021/11/20 07:59:12;;;;;;;;;;;;;;;11.92;59.84;100382.09;4426145;32;20281;-84
2021/11/20 08:01:37;;;;;;;;;;;;;;;11.95;59.84;100384.62;4413536;32;20323;-83
2021/11/20 08:04:03;;;;;;;;;;;;;;;11.99;59.84;100372.34;4413584;32;20357;-84
2021/11/20 08:06:28;;;;;;;;;;;;;;;11.91;59.84;100379.53;4425969;32;20019;-84
2021/11/20 08:08:53;;;;;;;;;;;;;;;11.99;59.85;100385.41;4413428;32;19969;-86
2021/11/20 08:11:19;;;;;;;;;;;;;;;12.22;59.85;100358.66;4413200;32;20383;-82
2021/11/20 08:13:44;;;;;;;;;;;;;;;12.38;59.86;100369.50;4426286;32;19985;-85
2021/11/20 08:16:09;;;;;;;;;;;;;;;12.24;59.85;100390.78;4426190;32;19985;-84
2021/11/20 08:18:34;;;;;;;;;;;;;;;12.20;59.86;100374.34;4425795;32;20000;-83
2021/11/20 08:21:03;;;;;;;;;;;;;;;12.22;59.86;100369.09;4439869;32;20009;-85
2021/11/20 08:23:28;;;;;;;;;;;;;;;12.08;59.85;100361.69;4425827;32;20001;-83
2021/11/20 08:25:53;;;;;;;;;;;;;;;12.09;59.85;100370.34;4412516;32;20034;-86
2021/11/20 08:28:19;;;;;;;;;;;;;;;12.12;59.84;100384.16;4425486;32;20652;-85
2021/11/20 08:30:44;;;;;;;;;;;;;;;12.21;59.85;100383.91;4426468;32;19981;-85
2021/11/20 08:33:09;;;;;;;;;;;;;;;12.19;59.85;100367.44;4413981;32;19989;-86
2021/11/20 08:35:37;;;;;;;;;;;;;;;12.26;59.85;100368.94;4426108;32;20255;-84
2021/11/20 08:38:03;;;;;;;;;;;;;;;12.33;59.86;100368.81;4440511;32;20015;-85
2021/11/20 08:40:29;;;;;;;;;;;;;;;12.36;59.87;100379.16;4413771;32;20005;-85
2021/11/20 08:42:54;;;;;;;;;;;;;;;12.44;59.87;100349.28;4425980;32;19985;-86
2021/11/20 08:45:20;;;;;;;;;;;;;;;12.46;59.87;100355.31;4425471;32;19993;-83
2021/11/20 08:47:47;;;;;;;;;;;;;;;12.36;59.86;100355.66;4425695;32;20000;-83
2021/11/20 08:50:13;;;;;;;;;;;;;;;12.62;59.87;100357.47;4412838;32;19993;-84
2021/11/20 08:52:39;;;;;;;;;;;;;;;12.57;59.88;100368.91;4426372;32;20050;-85
2021/11/20 08:55:04;;;;;;;;;;;;;;;12.49;59.87;100360.44;4426481;32;19997;-84
2021/11/20 08:57:30;;;;;;;;;;;;;;;12.41;59.86;100383.31;4426204;32;20599;-84
2021/11/20 08:59:55;;;;;;;;;;;;;;;12.51;59.87;100381.28;4425740;32;21992;-86
2021/11/20 09:02:22;;;;;;;;;;;;;;;12.53;59.87;100376.88;4426459;32;19997;-85
2021/11/20 09:04:51;;;;;;;;;;;;;;;12.38;59.86;100369.50;4425691;32;19993;-86
2021/11/20 09:07:16;;;;;;;;;;;;;;;12.16;59.85;100392.75;4440028;32;19988;-85
2021/11/20 09:09:43;;;;;;;;;;;;;;;12.33;59.86;100366.19;4439911;32;19978;-84
2021/11/20 09:12:20;;;;;;;;;;;;;;;12.38;59.86;100349.47;4425845;32;19985;-85
2021/11/20 09:14:47;;;;;;;;;;;;;;;12.51;59.87;100337.75;4425764;32;20325;-84
2021/11/20 09:17:13;;;;;;;;;;;;;;;12.64;59.87;100326.94;4425723;32;19977;-85
2021/11/20 09:19:38;;;;;;;;;;;;;;;12.56;59.87;100340.25;4426164;32;19989;-85
2021/11/20 09:22:03;;;;;;;;;;;;;;;12.41;59.86;100341.56;4425995;32;20024;-84
2021/11/20 09:24:30;;;;;;;;;;;;;;;12.50;59.87;100348.25;4425985;32;19988;-85
2021/11/20 09:26:55;;;;;;;;;;;;;;;12.37;59.87;100367.81;4412973;32;20038;-83
2021/11/20 09:29:20;;;;;;;;;;;;;;;12.47;59.87;100359.63;4439069;32;19986;-84
2021/11/20 09:31:46;;;;;;;;;;;;;;;12.63;59.88;100361.78;4412074;32;19993;-83
2021/11/20 09:34:12;;;;;;;;;;;;;;;12.89;59.88;100348.78;4425155;32;20303;-84
2021/11/20 09:36:37;;;;;;;;;;;;;;;12.87;59.89;100340.12;4425084;32;20026;-83
2021/11/20 09:39:06;;;;;;;;;;;;;;;13.17;59.90;100339.16;4400335;32;787961;-85
2021/11/20 09:41:38;;;;;;;;;;;;;;;13.16;59.90;100342.66;4438943;32;20624;-85
2021/11/20 09:44:04;;;;;;;;;;;;;;;13.10;59.89;100352.47;4425254;32;20042;-85
2021/11/20 09:46:32;;;;;;;;;;;;;;;13.02;59.89;100329.19;4412145;32;19990;-83
2021/11/20 09:49:03;;;;;;;;;;;;;;;13.13;59.91;100332.28;4425271;32;20099;-84
2021/11/20 09:51:32;;;;;;;;;;;;;;;13.06;59.90;100328.19;4425339;32;20007;-83
2021/11/20 09:53:57;;;;;;;;;;;;;;;13.02;59.89;100329.19;4439109;32;19969;-84
2021/11/20 09:56:28;;;;;;;;;;;;;;;13.07;59.90;100329.03;4412130;32;20059;-84
2021/11/20 09:58:55;;;;;;;;;;;;;;;13.01;59.89;100331.81;4412033;32;20006;-83
2021/11/20 10:01:20;;;;;;;;;;;;;;;13.14;59.90;100331.38;4412032;32;20376;-86
2021/11/20 10:03:48;;;;;;;;;;;;;;;13.31;59.91;100328.25;4438998;32;20015;-83
2021/11/20 10:06:27;;;;;;;;;;;;;;;13.19;59.90;100328.66;4438559;32;20004;-85
2021/11/20 10:09:01;;;;;;;;;;;;;;;13.45;59.92;100333.00;4424824;32;20041;-83
2021/11/20 10:11:26;;;;;;;;;;;;;;;13.64;59.93;100338.44;4412603;32;20011;-85
2021/11/20 10:14:13;;;;;;;;;;;;;;;13.49;59.93;100360.78;4425365;32;20311;-86
2021/11/20 10:16:48;;;;;;;;;;;;;;;13.40;59.92;100337.53;4423964;32;19974;-83
2021/11/20 10:19:14;;;;;;;;;;;;;;;13.27;59.92;100357.16;4412841;32;20625;-82
2021/11/20 10:21:59;;;;;;;;;;;;;;;13.24;59.91;100358.09;4424398;32;20001;-83
2021/11/20 10:24:31;;;;;;;;;;;;;;;13.21;59.91;100348.59;4424735;32;20334;-83
2021/11/20 10:27:00;;;;;;;;;;;;;;;13.20;59.91;100382.63;4424211;32;20352;-83
2021/11/20 10:29:45;;;;;;;;;;;;;;;13.56;59.92;100364.03;4424483;32;19990;-83
2021/11/20 10:32:13;;;;;;;;;;;;;;;13.59;59.93;100367.38;4424381;32;20001;-82
2021/11/20 10:34:40;;;;;;;;;;;;;;;13.83;59.94;100348.22;4438347;32;19974;-83
2021/11/20 10:37:08;;;;;;;;;;;;;;;13.68;59.93;100355.72;4424162;32;20041;-82
2021/11/20 10:39:33;;;;;;;;;;;;;;;13.94;59.94;100353.03;4411412;32;19997;-82
2021/11/20 10:42:00;;;;;;;;;;;;;;;13.86;59.94;100368.16;4438098;32;19997;-83
2021/11/20 10:44:27;;;;;;;;;;;;;;;13.70;59.93;100360.00;4411267;32;20026;-82
2021/11/20 10:46:54;;;;;;;;;;;;;;;13.71;59.93;100350.38;4411555;32;20308;-83
2021/11/20 10:49:20;;;;;;;;;;;;;;;13.90;59.95;100346.22;4424127;32;20015;-83
2021/11/20 10:51:57;;;;;;;;;;;;;;;13.72;59.93;100352.09;4423712;32;20396;-83
2021/11/20 10:54:41;;;;;;;;;;;;;;;13.73;59.94;100362.53;4437043;32;19978;-83
2021/11/20 10:57:25;;;;;;;;;;;;;;;13.79;59.93;100356.22;4438261;32;19973;-82
2021/11/20 10:59:50;;;;;;;;;;;;;;;13.91;59.95;100347.91;4423767;32;20047;-82
2021/11/20 11:02:29;;;;;;;;;;;;;;;14.13;59.96;100345.37;4423464;32;20032;-83
2021/11/20 11:05:16;;;;;;;;;;;;;;;14.18;59.96;100339.97;4410816;32;19974;-81
2021/11/20 11:08:00;;;;;;;;;;;;;;;14.22;59.96;100345.06;4410941;32;20360;-81
2021/11/20 11:10:33;;;;;;;;;;;;;;;14.12;59.96;100351.53;4423953;32;19981;-83
2021/11/20 11:13:10;;;;;;;;;;;;;;;14.15;59.96;100351.41;4411377;32;20002;-83
2021/11/20 11:15:54;;;;;;;;;;;;;;;13.93;59.94;100350.47;4410959;32;20282;-83
2021/11/20 11:18:31;;;;;;;;;;;;;;;13.96;59.95;100345.13;4423795;32;20856;-83
2021/11/20 11:20:56;;;;;;;;;;;;;;;13.82;59.94;100353.50;4423774;32;20399;-81
2021/11/20 11:23:24;;;;;;;;;;;;;;;14.09;59.96;100342.03;4423572;32;19993;-82
2021/11/20 11:25:51;;;;;;;;;;;;;;;14.00;59.95;100341.53;4423418;32;20034;-83
2021/11/20 11:28:31;;;;;;;;;;;;;;;14.09;59.95;100335.94;4410729;32;20005;-83
2021/11/20 11:31:14;;;;;;;;;;;;;;;14.13;59.95;100332.28;4410879;32;19991;-83
2021/11/20 11:33:53;;;;;;;;;;;;;;;14.17;59.95;100328.63;4437879;32;19993;-82
2021/11/20 11:36:38;;;;;;;;;;;;;;;14.36;59.97;100324.41;4410851;32;20342;-82
2021/11/20 11:39:18;;;;;;;;;;;;;;;14.21;59.96;100314.53;4437532;32;20009;-82
2021/11/20 11:41:51;;;;;;;;;;;;;;;14.24;59.96;100331.91;4423166;32;19993;-83
2021/11/20 11:44:26;;;;;;;;;;;;;;;14.16;59.96;100321.69;4410334;32;20005;-84
2021/11/20 11:46:55;;;;;;;;;;;;;;;14.45;59.97;100323.25;4423086;32;19973;-82
2021/11/20 11:49:26;;;;;;;;;;;;;;;14.42;59.97;100321.56;4410655;32;19993;-83
2021/11/20 11:52:10;;;;;;;;;;;;;;;14.36;59.97;100313.94;4423137;32;20394;-83
2021/11/20 11:54:38;;;;;;;;;;;;;;;14.24;59.96;100298.72;4437116;32;20004;-83
2021/11/20 11:57:03;;;;;;;;;;;;;;;14.30;59.96;100306.31;4410522;32;20026;-83
2021/11/20 11:59:34;;;;;;;;;;;;;;;14.12;59.96;100315.72;4437191;32;19981;-83
2021/11/20 12:02:16;;;;;;;;;;;;;;;14.22;59.97;100302.31;4422921;32;20024;-81
2021/11/20 12:04:42;;;;;;;;;;;;;;;14.23;59.97;100304.87;4423251;32;20830;-83
2021/11/20 12:07:10;;;;;;;;;;;;;;;14.46;59.97;100303.16;4410133;32;19973;-83
2021/11/20 12:09:38;;;;;;;;;;;;;;;14.58;59.99;100297.41;4410167;32;19982;-82
2021/11/20 12:12:07;;;;;;;;;;;;;;;14.28;59.97;100284.59;4410296;32;20809;-82
2021/11/20 12:14:34;;;;;;;;;;;;;;;14.25;59.96;100295.19;4410213;32;20057;-84
2021/11/20 12:17:04;;;;;;;;;;;;;;;14.57;59.98;100287.84;4422712;32;20026;-82
2021/11/20 12:19:52;;;;;;;;;;;;;;;14.39;59.97;100273.69;4436715;32;20065;-82
2021/11/20 12:22:31;;;;;;;;;;;;;;;14.41;59.98;100280.56;4410518;32;20440;-82
2021/11/20 12:24:58;;;;;;;;;;;;;;;14.26;59.97;100270.69;4436692;32;20049;-83
2021/11/20 12:27:35;;;;;;;;;;;;;;;14.41;59.98;100280.56;4436602;32;20019;-82
2021/11/20 12:30:27;;;;;;;;;;;;;;;14.33;59.96;100273.94;4410156;32;20936;-84
2021/11/20 12:32:56;;;;;;;;;;;;;;;14.49;59.98;100271.59;4418631;32;20002;-85
2021/11/20 12:35:21;;;;;;;;;;;;;;;14.50;59.98;100274.16;4419358;32;20005;-83
2021/11/20 12:37:49;;;;;;;;;;;;;;;14.48;59.98;100257.66;4421927;32;20349;-83
2021/11/20 12:40:20;;;;;;;;;;;;;;;14.39;59.97;100256.19;4409808;32;19970;-83